createdAt,value
2017-08-05T00:00:30.853Z,6.20
2017-08-05T00:02:58.408Z,5.27
2017-08-05T00:05:26.001Z,5.73
2017-08-05T00:07:53.549Z,5.40
2017-08-05T00:10:21.142Z,6.40
2017-08-05T00:12:48.689Z,3.23
2017-08-05T00:15:16.236Z,5.17
2017-08-05T00:17:43.830Z,3.07
2017-08-05T00:20:11.615Z,5.43
2017-08-05T00:22:39.166Z,8.60
2017-08-05T00:25:06.824Z,5.70
2017-08-05T00:27:34.382Z,5.30
2017-08-05T00:30:02.761Z,8.37
2017-08-05T00:32:31.082Z,4.00
2017-08-05T00:34:58.698Z,6.40
2017-08-05T00:37:26.270Z,5.40
2017-08-05T00:39:53.830Z,3.23
2017-08-05T00:42:21.401Z,4.73
2017-08-05T00:44:48.956Z,5.60
2017-08-05T00:47:16.534Z,5.83
2017-08-05T00:49:44.096Z,11.43
2017-08-05T00:52:11.695Z,4.20
2017-08-05T00:54:39.288Z,6.00
2017-08-05T00:57:07.608Z,3.90
2017-08-05T00:59:35.203Z,6.30
2017-08-05T01:02:02.771Z,9.23
2017-08-05T01:04:30.359Z,7.27
2017-08-05T01:06:57.951Z,2.73
2017-08-05T01:09:25.519Z,11.37
2017-08-05T01:11:53.107Z,5.97
2017-08-05T01:14:20.670Z,6.70
2017-08-05T01:16:48.261Z,4.27
2017-08-05T01:19:15.840Z,5.93
2017-08-05T01:21:43.417Z,3.70
2017-08-05T01:24:10.967Z,6.13
2017-08-05T01:26:38.558Z,9.67
2017-08-05T01:29:06.107Z,9.17
2017-08-05T01:31:33.683Z,5.30
2017-08-05T01:34:01.246Z,13.47
2017-08-05T01:36:28.841Z,6.17
2017-08-05T01:38:56.402Z,6.33
2017-08-05T01:41:23.996Z,5.87
2017-08-05T01:43:51.588Z,6.70
2017-08-05T01:46:19.150Z,11.27
2017-08-05T01:48:47.007Z,8.27
2017-08-05T01:51:14.753Z,5.57
2017-08-05T01:53:42.339Z,6.87
2017-08-05T01:56:09.943Z,9.07
2017-08-05T01:58:37.610Z,6.03
2017-08-05T02:01:05.202Z,8.43
2017-08-05T02:03:32.797Z,10.73
2017-08-05T02:06:01.154Z,6.87
2017-08-05T02:08:28.718Z,9.37
2017-08-05T02:10:56.295Z,8.50
2017-08-05T02:13:23.857Z,8.47
2017-08-05T02:15:52.230Z,8.20
2017-08-05T02:18:20.557Z,7.00
2017-08-05T02:20:48.110Z,9.30
2017-08-05T02:23:15.719Z,6.97
2017-08-05T02:25:43.292Z,9.50
2017-08-05T02:28:10.855Z,8.50
2017-08-05T02:30:39.212Z,9.83
2017-08-05T02:33:06.761Z,6.63
2017-08-05T02:35:34.364Z,9.00
2017-08-05T02:38:01.916Z,7.70
2017-08-05T02:40:30.243Z,7.00
2017-08-05T02:42:57.836Z,8.77
2017-08-05T02:45:25.399Z,6.90
2017-08-05T02:47:52.992Z,9.10
2017-08-05T02:50:20.557Z,7.93
2017-08-05T02:52:49.003Z,9.80
2017-08-05T02:55:16.550Z,9.90
2017-08-05T02:57:44.098Z,9.00
2017-08-05T03:00:11.695Z,8.30
2017-08-05T03:02:40.023Z,12.93
2017-08-05T03:05:07.611Z,7.87
2017-08-05T03:07:35.173Z,9.83
2017-08-05T03:10:02.738Z,10.03
2017-08-05T03:12:30.330Z,9.23
2017-08-05T03:14:57.892Z,10.77
2017-08-05T03:17:25.441Z,10.83
2017-08-05T03:19:53.017Z,8.90
2017-08-05T03:22:20.597Z,13.43
2017-08-05T03:24:48.189Z,6.60
2017-08-05T03:27:15.751Z,8.67
2017-08-05T03:29:43.344Z,11.83
2017-08-05T03:32:10.902Z,8.97
2017-08-05T03:34:38.501Z,9.33
2017-08-05T03:37:06.062Z,6.77
2017-08-05T03:39:33.616Z,6.30
2017-08-05T03:42:01.203Z,7.60
2017-08-05T03:44:28.752Z,10.33
2017-08-05T03:46:56.344Z,8.03
2017-08-05T03:49:24.702Z,8.90
2017-08-05T03:51:52.280Z,7.57
2017-08-05T03:54:19.858Z,10.77
2017-08-05T03:56:47.465Z,11.23
2017-08-05T03:59:15.012Z,7.77
2017-08-05T04:01:42.656Z,9.23
2017-08-05T04:04:10.245Z,5.90
2017-08-05T04:06:37.806Z,6.97
2017-08-05T04:09:05.399Z,8.83
2017-08-05T04:11:32.964Z,9.30
2017-08-05T04:14:01.336Z,7.50
2017-08-05T04:16:29.716Z,11.20
2017-08-05T04:18:57.271Z,9.60
2017-08-05T04:21:24.867Z,8.57
2017-08-05T04:23:52.433Z,11.70
2017-08-05T04:26:20.020Z,9.70
2017-08-05T04:28:47.582Z,11.93
2017-08-05T04:31:15.174Z,7.40
2017-08-05T04:33:42.738Z,10.10
2017-08-05T04:36:10.330Z,9.67
2017-08-05T04:38:37.893Z,10.50
2017-08-05T04:41:05.486Z,12.10
2017-08-05T04:43:33.034Z,8.83
2017-08-05T04:46:00.627Z,10.00
2017-08-05T04:48:28.193Z,10.50
2017-08-05T04:50:56.037Z,10.33
2017-08-05T04:53:23.599Z,12.57
2017-08-05T04:55:51.193Z,16.23
2017-08-05T04:58:19.521Z,9.67
2017-08-05T05:00:47.116Z,12.50
2017-08-05T05:03:14.676Z,10.17
2017-08-05T05:05:42.269Z,10.53
2017-08-05T05:08:09.825Z,18.53
2017-08-05T05:10:37.425Z,11.10
2017-08-05T05:13:04.987Z,13.63
2017-08-05T05:15:32.537Z,11.43
2017-08-05T05:18:00.128Z,15.03
2017-08-05T05:20:27.690Z,14.13
2017-08-05T05:22:55.284Z,17.43
2017-08-05T05:25:22.847Z,13.20
2017-08-05T05:27:50.410Z,10.10
2017-08-05T05:30:18.001Z,12.90
2017-08-05T05:32:45.550Z,9.70
2017-08-05T05:35:13.147Z,13.23
2017-08-05T05:37:40.706Z,12.43
2017-08-05T05:40:08.268Z,9.60
2017-08-05T05:42:35.861Z,8.83
2017-08-05T05:45:03.423Z,11.20
2017-08-05T05:47:30.986Z,12.07
2017-08-05T05:49:58.595Z,12.67
2017-08-05T05:52:26.186Z,10.07
2017-08-05T05:54:53.758Z,15.37
2017-08-05T05:57:21.371Z,10.47
2017-08-05T05:59:48.921Z,13.53
2017-08-05T06:02:16.484Z,10.50
2017-08-05T06:04:44.069Z,14.20
2017-08-05T06:07:11.628Z,10.03
2017-08-05T06:09:39.186Z,11.00
2017-08-05T06:12:06.780Z,11.20
2017-08-05T06:14:35.107Z,10.60
2017-08-05T06:17:02.704Z,12.37
2017-08-05T06:19:30.293Z,9.43
2017-08-05T06:21:57.953Z,9.73
2017-08-05T06:24:25.510Z,8.80
2017-08-05T06:26:53.056Z,6.70
2017-08-05T06:29:20.650Z,11.43
2017-08-05T06:31:48.197Z,9.67
2017-08-05T06:34:15.760Z,11.07
2017-08-05T06:36:43.353Z,7.43
2017-08-05T06:39:10.900Z,6.70
2017-08-05T06:41:38.494Z,6.03
2017-08-05T06:44:06.041Z,6.43
2017-08-05T06:46:33.590Z,6.63
2017-08-05T06:49:01.181Z,6.20
2017-08-05T06:51:28.751Z,10.47
2017-08-05T06:53:57.124Z,7.57
2017-08-05T06:56:24.681Z,5.70
2017-08-05T06:58:52.229Z,6.47
2017-08-05T07:01:19.802Z,4.83
2017-08-05T07:03:47.359Z,4.03
2017-08-05T07:06:15.721Z,5.90
2017-08-05T07:08:43.277Z,4.27
2017-08-05T07:11:10.840Z,3.80
2017-08-05T07:13:38.432Z,3.90
2017-08-05T07:16:06.765Z,3.40
2017-08-05T07:18:34.323Z,3.30
2017-08-05T07:21:01.905Z,2.97
2017-08-05T07:23:29.464Z,3.07
2017-08-05T07:25:57.055Z,4.33
2017-08-05T07:28:24.604Z,3.50
2017-08-05T07:30:52.166Z,3.37
2017-08-05T07:33:19.761Z,3.10
2017-08-05T07:35:47.323Z,3.37
2017-08-05T07:38:14.915Z,3.60
2017-08-05T07:40:42.464Z,4.00
2017-08-05T07:43:10.026Z,8.00
2017-08-05T07:45:37.618Z,5.67
2017-08-05T07:48:05.963Z,4.07
2017-08-05T07:50:33.517Z,5.80
2017-08-05T07:53:01.102Z,4.20
2017-08-05T07:55:28.665Z,3.97
2017-08-05T07:57:56.258Z,4.03
2017-08-05T08:00:23.853Z,3.17
2017-08-05T08:02:51.400Z,2.23
2017-08-05T08:05:18.997Z,1.70
2017-08-05T08:07:46.554Z,3.00
2017-08-05T08:10:14.103Z,1.97
2017-08-05T08:12:41.704Z,1.33
2017-08-05T08:15:10.024Z,1.43
2017-08-05T08:17:37.603Z,1.30
2017-08-05T08:20:05.225Z,1.77
2017-08-05T08:22:32.878Z,1.10
2017-08-05T08:25:00.440Z,3.33
2017-08-05T08:27:28.047Z,1.30
2017-08-05T08:29:55.987Z,2.90
2017-08-05T08:32:24.021Z,1.40
2017-08-05T08:34:51.585Z,1.40
2017-08-05T08:37:19.955Z,2.23
2017-08-05T08:39:47.562Z,1.70
2017-08-05T08:42:15.141Z,18.63
2017-08-05T08:44:42.731Z,2.37
2017-08-05T08:47:10.291Z,3.50
2017-08-05T08:49:37.885Z,2.63
2017-08-05T08:52:05.448Z,2.37
2017-08-05T08:54:33.010Z,1.77
2017-08-05T08:57:00.604Z,1.37
2017-08-05T08:59:28.170Z,1.30
2017-08-05T09:01:55.735Z,1.10
2017-08-05T09:04:23.352Z,1.17
2017-08-05T09:06:50.914Z,1.13
2017-08-05T09:09:18.461Z,1.27
2017-08-05T09:11:46.040Z,1.10
2017-08-05T09:14:13.588Z,1.87
2017-08-05T09:16:41.180Z,2.60
2017-08-05T09:19:08.745Z,2.20
2017-08-05T09:21:36.328Z,2.30
2017-08-05T09:24:03.877Z,1.50
2017-08-05T09:26:31.475Z,1.30
2017-08-05T09:28:59.024Z,3.70
2017-08-05T09:31:27.346Z,1.40
2017-08-05T09:33:54.929Z,1.20
2017-08-05T09:36:22.481Z,2.60
2017-08-05T09:38:50.069Z,0.93
2017-08-05T09:41:17.632Z,1.30
2017-08-05T09:43:45.226Z,1.17
2017-08-05T09:46:13.689Z,1.10
2017-08-05T09:48:42.032Z,2.10
2017-08-05T09:51:09.594Z,1.60
2017-08-05T09:53:38.007Z,1.00
2017-08-05T09:56:06.314Z,0.90
2017-08-05T09:58:34.908Z,1.23
2017-08-05T10:01:02.486Z,1.00
2017-08-05T10:03:30.036Z,1.30
2017-08-05T10:05:57.627Z,1.30
2017-08-05T10:08:25.224Z,1.27
2017-08-05T10:10:52.789Z,0.93
2017-08-05T10:13:20.375Z,1.47
2017-08-05T10:15:47.952Z,0.90
2017-08-05T10:18:15.514Z,1.33
2017-08-05T10:20:43.108Z,1.00
2017-08-05T10:23:10.651Z,1.33
2017-08-05T10:25:38.232Z,1.43
2017-08-05T10:28:06.577Z,1.30
2017-08-05T10:30:34.124Z,1.30
2017-08-05T10:33:01.702Z,1.20
2017-08-05T10:35:29.249Z,1.53
2017-08-05T10:37:56.933Z,2.20
2017-08-05T10:40:24.483Z,3.97
2017-08-05T10:42:52.044Z,2.83
2017-08-05T10:45:19.638Z,4.60
2017-08-05T10:47:47.955Z,2.30
2017-08-05T10:50:15.514Z,3.03
2017-08-05T10:52:43.105Z,3.47
2017-08-05T10:55:11.147Z,6.60
2017-08-05T10:57:38.741Z,7.67
2017-08-05T11:00:06.378Z,5.57
2017-08-05T11:02:33.971Z,3.70
2017-08-05T11:05:01.535Z,3.77
2017-08-05T11:07:29.861Z,4.17
2017-08-05T11:09:57.454Z,10.87
2017-08-05T11:12:25.037Z,5.13
2017-08-05T11:14:53.394Z,5.27
2017-08-05T11:17:20.953Z,6.13
2017-08-05T11:19:48.547Z,3.80
2017-08-05T11:22:17.180Z,5.00
2017-08-05T11:24:44.875Z,8.57
2017-08-05T11:27:12.540Z,5.87
2017-08-05T11:29:40.157Z,11.60
2017-08-05T11:32:08.682Z,7.93
2017-08-05T11:34:36.293Z,5.27
2017-08-05T11:37:03.877Z,9.13
2017-08-05T11:39:32.006Z,9.60
2017-08-05T11:41:59.807Z,13.83
2017-08-05T11:44:27.399Z,6.77
2017-08-05T11:46:54.948Z,8.53
2017-08-05T11:49:22.540Z,6.80
2017-08-05T11:51:51.049Z,6.53
2017-08-05T11:54:18.610Z,7.47
2017-08-05T11:56:48.078Z,8.87
2017-08-05T11:59:16.438Z,6.13
2017-08-05T12:01:44.030Z,6.40
2017-08-05T12:04:11.579Z,6.47
2017-08-05T12:06:39.170Z,8.73
2017-08-05T12:09:07.768Z,6.07
2017-08-05T12:11:35.325Z,7.47
2017-08-05T12:14:02.909Z,8.87
2017-08-05T12:16:30.628Z,7.17
2017-08-05T12:18:58.215Z,8.70
2017-08-05T12:21:25.807Z,7.67
2017-08-05T12:23:53.401Z,8.93
2017-08-05T12:26:20.963Z,7.20
2017-08-05T12:28:48.602Z,6.90
2017-08-05T12:31:16.164Z,9.53
2017-08-05T12:33:43.757Z,8.83
2017-08-05T12:36:11.315Z,6.97
2017-08-05T12:38:38.912Z,5.37
2017-08-05T12:41:06.721Z,4.20
2017-08-05T12:43:34.323Z,10.97
2017-08-05T12:46:02.366Z,5.37
2017-08-05T12:48:29.928Z,7.97
2017-08-05T12:50:57.523Z,10.67
2017-08-05T12:53:25.145Z,16.80
2017-08-05T12:55:52.710Z,11.30
2017-08-05T12:58:20.333Z,10.50
2017-08-05T13:00:48.826Z,7.13
2017-08-05T13:03:16.420Z,9.80
2017-08-05T13:05:44.010Z,5.00
2017-08-05T13:08:17.054Z,8.33
2017-08-05T13:10:46.627Z,6.60
2017-08-05T13:13:19.221Z,6.10
2017-08-05T13:15:46.867Z,8.50
2017-08-05T13:18:14.654Z,6.67
2017-08-05T13:20:50.604Z,7.20
2017-08-05T13:23:20.593Z,10.30
2017-08-05T13:26:00.548Z,7.10
2017-08-05T13:28:29.599Z,7.77
2017-08-05T13:31:01.705Z,5.67
2017-08-05T13:36:12.186Z,5.87
2017-08-05T13:38:43.109Z,9.57
2017-08-05T13:41:21.095Z,6.90
2017-08-05T13:43:48.662Z,8.87
2017-08-05T13:46:17.226Z,4.40
2017-08-05T13:51:30.422Z,8.30
2017-08-05T13:53:58.018Z,5.23
2017-08-05T13:56:25.567Z,3.63
2017-08-05T13:59:14.258Z,4.93
2017-08-05T14:01:47.366Z,5.97
2017-08-05T14:04:29.957Z,6.70
2017-08-05T14:06:57.825Z,5.30
2017-08-05T14:09:35.502Z,4.23
2017-08-05T14:14:39.884Z,10.97
2017-08-05T14:17:23.128Z,8.93
2017-08-05T14:19:50.727Z,4.30
2017-08-05T14:22:18.274Z,2.87
2017-08-05T14:24:45.905Z,6.17
2017-08-05T14:27:17.262Z,3.93
2017-08-05T14:29:47.017Z,4.10
2017-08-05T14:32:14.793Z,4.93
2017-08-05T14:34:42.359Z,4.40
2017-08-05T14:37:09.936Z,5.77
2017-08-05T14:39:38.264Z,5.77
2017-08-05T14:42:05.830Z,4.57
2017-08-05T14:44:33.377Z,5.27
2017-08-05T14:47:00.944Z,4.93
2017-08-05T14:49:28.494Z,6.00
2017-08-05T14:51:57.343Z,4.90
2017-08-05T14:54:26.219Z,6.60
2017-08-05T14:56:54.613Z,6.57
2017-08-05T14:59:22.986Z,5.40
2017-08-05T15:01:51.286Z,5.63
2017-08-05T15:04:18.837Z,6.00
2017-08-05T15:06:46.435Z,5.50
2017-08-05T15:09:13.970Z,4.53
2017-08-05T15:11:41.529Z,8.63
2017-08-05T15:14:11.970Z,8.43
2017-08-05T15:16:40.354Z,6.37
2017-08-05T15:19:08.751Z,5.97
2017-08-05T15:21:36.298Z,5.43
2017-08-05T15:24:13.817Z,6.90
2017-08-05T15:26:42.897Z,6.30
2017-08-05T15:29:11.662Z,6.13
2017-08-05T15:31:40.147Z,7.60
2017-08-05T15:34:17.907Z,6.27
2017-08-05T15:36:46.818Z,6.40
2017-08-05T15:39:18.385Z,8.00
2017-08-05T15:41:46.914Z,9.67
2017-08-05T15:44:15.190Z,6.70
2017-08-05T15:46:43.542Z,6.90
2017-08-05T15:49:11.100Z,5.77
2017-08-05T15:51:39.413Z,6.40
2017-08-05T15:54:07.746Z,9.40
2017-08-05T15:56:35.313Z,8.87
2017-08-05T15:59:27.687Z,10.40
2017-08-05T16:02:00.531Z,8.80
2017-08-05T16:04:28.961Z,8.13
2017-08-05T16:07:04.114Z,8.30
2017-08-05T16:09:32.645Z,8.00
2017-08-05T16:12:04.530Z,9.20
2017-08-05T16:14:33.281Z,7.10
2017-08-05T16:17:02.698Z,8.13
2017-08-05T16:19:32.748Z,10.30
2017-08-05T16:22:05.025Z,8.80
2017-08-05T16:24:32.566Z,6.83
2017-08-05T16:27:03.870Z,6.23
2017-08-05T16:29:32.866Z,6.80
2017-08-05T16:32:04.180Z,6.80
2017-08-05T16:34:34.309Z,7.73
2017-08-05T16:37:06.542Z,7.33
2017-08-05T16:39:38.308Z,6.80
2017-08-05T16:42:08.330Z,6.53
2017-08-05T16:44:36.602Z,10.90
2017-08-05T16:47:04.411Z,7.90
2017-08-05T16:49:33.254Z,7.80
2017-08-05T16:52:01.735Z,7.40
2017-08-05T16:54:30.613Z,6.60
2017-08-05T16:57:02.042Z,11.00
2017-08-05T16:59:30.511Z,6.37
2017-08-05T17:02:00.790Z,11.53
2017-08-05T17:04:29.358Z,5.97
2017-08-05T17:06:56.887Z,8.10
2017-08-05T17:09:26.014Z,7.87
2017-08-05T17:11:54.335Z,6.70
2017-08-05T17:14:21.969Z,6.37
2017-08-05T17:16:49.547Z,6.40
2017-08-05T17:19:18.061Z,9.83
2017-08-05T17:21:45.643Z,8.97
2017-08-05T17:24:15.406Z,6.30
2017-08-05T17:26:43.024Z,11.03
2017-08-05T17:29:12.966Z,6.80
2017-08-05T17:31:43.717Z,6.67
2017-08-05T17:34:11.928Z,13.17
2017-08-05T17:36:42.206Z,7.23
2017-08-05T17:39:10.610Z,9.80
2017-08-05T17:41:39.284Z,10.93
2017-08-05T17:44:06.862Z,9.53
2017-08-05T17:46:35.829Z,13.77
2017-08-05T17:49:04.418Z,9.77
2017-08-05T17:51:33.845Z,10.50
2017-08-05T17:54:02.152Z,9.73
2017-08-05T17:56:30.729Z,9.07
2017-08-05T17:58:58.884Z,12.80
2017-08-05T18:01:27.199Z,11.20
2017-08-05T18:03:54.735Z,10.70
2017-08-05T18:06:22.375Z,12.43
2017-08-05T18:08:50.718Z,9.67
2017-08-05T18:11:18.271Z,11.03
2017-08-05T18:13:45.858Z,7.50
2017-08-05T18:16:14.341Z,11.37
2017-08-05T18:18:46.561Z,8.33
2017-08-05T18:21:22.279Z,11.07
2017-08-05T18:23:58.121Z,10.33
2017-08-05T18:26:28.706Z,5.80
2017-08-05T18:31:45.179Z,8.10
2017-08-05T18:36:51.899Z,6.43
2017-08-05T18:39:32.403Z,9.90
2017-08-05T18:42:03.305Z,9.47
2017-08-05T18:44:34.870Z,6.77
2017-08-05T18:47:05.082Z,7.60
2017-08-05T18:49:40.180Z,14.50
2017-08-05T18:52:09.513Z,7.27
2017-08-05T18:54:40.844Z,9.80
2017-08-05T18:57:10.875Z,8.80
2017-08-05T18:59:41.692Z,10.30
2017-08-05T19:02:21.626Z,11.00
2017-08-05T19:07:58.924Z,6.93
2017-08-05T19:13:26.553Z,7.83
2017-08-05T19:16:13.391Z,9.10
2017-08-05T19:18:40.977Z,11.73
2017-08-05T19:21:18.067Z,11.47
2017-08-05T19:27:07.302Z,8.23
2017-08-05T19:42:14.971Z,14.83
2017-08-05T19:44:49.224Z,12.13
2017-08-05T19:47:29.298Z,12.00
2017-08-05T19:50:01.037Z,11.73
2017-08-05T19:52:33.109Z,12.30
2017-08-05T19:55:01.611Z,14.43
2017-08-05T19:57:30.117Z,12.63
2017-08-05T19:59:58.627Z,18.57
2017-08-05T20:02:26.178Z,16.10
2017-08-05T20:05:03.767Z,11.93
2017-08-05T20:07:32.277Z,11.90
2017-08-05T20:10:01.047Z,9.90
2017-08-05T20:12:28.616Z,9.50
2017-08-05T20:14:59.711Z,11.23
2017-08-05T20:17:34.874Z,11.87
2017-08-05T20:20:03.276Z,13.33
2017-08-05T20:22:31.556Z,10.03
2017-08-05T20:24:59.292Z,11.50
2017-08-05T20:27:33.030Z,13.60
2017-08-05T20:30:00.622Z,12.90
2017-08-05T20:32:28.230Z,15.27
2017-08-05T20:43:22.031Z,6.37
2017-08-05T20:46:00.563Z,6.07
2017-08-05T20:48:53.562Z,6.10
2017-08-05T20:54:22.719Z,7.27
2017-08-05T20:59:44.003Z,8.67
2017-08-05T21:02:11.675Z,6.77
2017-08-05T21:04:39.250Z,11.23
2017-08-05T21:07:07.094Z,6.93
2017-08-05T21:09:35.454Z,7.70
2017-08-05T21:12:03.030Z,7.87
2017-08-05T21:14:30.978Z,8.37
2017-08-05T21:16:58.534Z,13.10
2017-08-05T21:19:26.090Z,12.20
2017-08-05T21:21:53.676Z,10.20
2017-08-05T21:24:21.217Z,10.80
2017-08-05T21:26:49.543Z,9.30
2017-08-05T21:29:17.940Z,10.03
2017-08-05T21:31:45.497Z,9.07
2017-08-05T21:34:13.879Z,11.23
2017-08-05T21:36:42.194Z,9.57
2017-08-05T21:39:09.741Z,9.83
2017-08-05T21:41:37.320Z,7.23
2017-08-05T21:44:04.867Z,7.97
2017-08-05T21:46:32.474Z,9.20
2017-08-05T21:49:00.013Z,7.53
2017-08-05T21:51:27.593Z,6.70
2017-08-05T21:53:55.165Z,7.07
2017-08-05T21:56:22.706Z,8.33
2017-08-05T21:58:50.306Z,7.87
2017-08-05T22:01:17.852Z,9.87
2017-08-05T22:03:46.146Z,8.93
2017-08-05T22:06:13.731Z,9.30
2017-08-05T22:08:41.283Z,8.23
2017-08-05T22:11:08.830Z,8.23
2017-08-05T22:13:36.417Z,9.80
2017-08-05T22:16:03.981Z,9.90
2017-08-05T22:18:31.557Z,9.50
2017-08-05T22:20:59.098Z,10.67
2017-08-05T22:23:26.691Z,12.43
2017-08-05T22:25:55.004Z,9.63
2017-08-05T22:28:22.550Z,11.37
2017-08-05T22:30:50.134Z,11.73
2017-08-05T22:33:17.717Z,13.37
2017-08-05T22:35:45.260Z,14.07
2017-08-05T22:38:12.849Z,13.60
2017-08-05T22:40:40.402Z,15.23
2017-08-05T22:43:07.947Z,12.87
2017-08-05T22:45:35.631Z,14.70
2017-08-05T22:48:03.983Z,12.23
2017-08-05T22:50:31.555Z,11.57
2017-08-05T22:52:59.166Z,10.70
2017-08-05T22:55:26.965Z,10.93
2017-08-05T22:57:54.506Z,12.13
2017-08-05T23:00:22.043Z,11.43
2017-08-05T23:02:49.619Z,11.87
2017-08-05T23:05:17.170Z,20.33
2017-08-05T23:07:44.751Z,13.23
2017-08-05T23:10:12.289Z,13.50
2017-08-05T23:12:39.834Z,15.93
2017-08-05T23:15:07.405Z,15.40
2017-08-05T23:17:34.998Z,15.13
2017-08-05T23:20:02.578Z,12.63
2017-08-05T23:22:30.891Z,15.30
2017-08-05T23:24:58.478Z,12.17
2017-08-05T23:27:26.036Z,14.50
2017-08-05T23:29:53.578Z,14.70
2017-08-05T23:32:21.161Z,13.97
2017-08-05T23:34:48.702Z,11.93
2017-08-05T23:37:16.273Z,14.33
2017-08-05T23:39:43.847Z,13.07
2017-08-05T23:42:11.395Z,15.37
2017-08-05T23:44:38.974Z,14.10
2017-08-05T23:47:06.514Z,12.47
2017-08-05T23:49:34.103Z,20.30
2017-08-05T23:52:02.410Z,17.50
2017-08-05T23:54:29.971Z,18.03
2017-08-05T23:56:57.557Z,15.13
2017-08-05T23:59:25.108Z,18.73
